sensor_id;sensor_type;location;lat;lon;timestamp;P1;durP1;ratioP1;P2;durP2;ratioP2
11931;SDS011;6025;51.368;6.788;2023-02-01T00:01:20;12.03;;;4.03;;
11931;SDS011;6025;51.368;6.788;2023-02-01T00:06:11;11.33;;;3.63;;
11931;SDS011;6025;51.368;6.788;2023-02-01T00:11:04;11.27;;;3.90;;
11931;SDS011;6025;51.368;6.788;2023-02-01T00:16:04;9.83;;;3.77;;
11931;SDS011;6025;51.368;6.788;2023-02-01T00:20:57;9.63;;;3.43;;
11931;SDS011;6025;51.368;6.788;2023-02-01T00:25:49;11.07;;;3.57;;
11931;SDS011;6025;51.368;6.788;2023-02-01T00:30:41;11.63;;;3.97;;
11931;SDS011;6025;51.368;6.788;2023-02-01T00:35:33;10.17;;;3.97;;
11931;SDS011;6025;51.368;6.788;2023-02-01T00:40:26;11.93;;;4.00;;
11931;SDS011;6025;51.368;6.788;2023-02-01T00:45:18;14.57;;;4.80;;
11931;SDS011;6025;51.368;6.788;2023-02-01T00:50:10;10.87;;;4.97;;
11931;SDS011;6025;51.368;6.788;2023-02-01T00:55:02;9.03;;;5.03;;
11931;SDS011;6025;51.368;6.788;2023-02-01T00:59:55;13.47;;;5.30;;
11931;SDS011;6025;51.368;6.788;2023-02-01T01:04:47;10.83;;;5.20;;
11931;SDS011;6025;51.368;6.788;2023-02-01T01:09:39;12.73;;;5.00;;
11931;SDS011;6025;51.368;6.788;2023-02-01T01:14:31;9.23;;;4.43;;
11931;SDS011;6025;51.368;6.788;2023-02-01T01:19:24;10.70;;;4.77;;
11931;SDS011;6025;51.368;6.788;2023-02-01T01:24:16;10.53;;;4.63;;
11931;SDS011;6025;51.368;6.788;2023-02-01T01:29:08;10.80;;;4.43;;
11931;SDS011;6025;51.368;6.788;2023-02-01T01:34:00;13.40;;;4.10;;
11931;SDS011;6025;51.368;6.788;2023-02-01T01:38:53;11.40;;;4.10;;
11931;SDS011;6025;51.368;6.788;2023-02-01T01:43:49;11.00;;;3.77;;
11931;SDS011;6025;51.368;6.788;2023-02-01T01:48:43;15.43;;;4.10;;
11931;SDS011;6025;51.368;6.788;2023-02-01T01:53:36;8.40;;;3.20;;
11931;SDS011;6025;51.368;6.788;2023-02-01T01:58:31;10.83;;;3.37;;
11931;SDS011;6025;51.368;6.788;2023-02-01T02:03:26;9.87;;;3.07;;
11931;SDS011;6025;51.368;6.788;2023-02-01T02:08:19;10.77;;;2.83;;
11931;SDS011;6025;51.368;6.788;2023-02-01T02:13:11;10.83;;;3.03;;
11931;SDS011;6025;51.368;6.788;2023-02-01T02:18:06;8.20;;;2.97;;
11931;SDS011;6025;51.368;6.788;2023-02-01T02:23:10;9.77;;;3.10;;
11931;SDS011;6025;51.368;6.788;2023-02-01T02:28:43;11.97;;;3.20;;
11931;SDS011;6025;51.368;6.788;2023-02-01T02:33:54;9.13;;;2.70;;
11931;SDS011;6025;51.368;6.788;2023-02-01T02:38:52;9.90;;;2.67;;
11931;SDS011;6025;51.368;6.788;2023-02-01T02:43:48;7.80;;;3.03;;
11931;SDS011;6025;51.368;6.788;2023-02-01T02:49:04;12.60;;;3.00;;
11931;SDS011;6025;51.368;6.788;2023-02-01T02:54:02;15.67;;;3.17;;
11931;SDS011;6025;51.368;6.788;2023-02-01T02:59:15;12.50;;;2.87;;
11931;SDS011;6025;51.368;6.788;2023-02-01T03:04:27;12.87;;;2.60;;
11931;SDS011;6025;51.368;6.788;2023-02-01T03:09:21;8.17;;;2.60;;
11931;SDS011;6025;51.368;6.788;2023-02-01T03:14:15;13.30;;;3.00;;
11931;SDS011;6025;51.368;6.788;2023-02-01T03:19:08;8.83;;;2.97;;
11931;SDS011;6025;51.368;6.788;2023-02-01T03:24:06;11.70;;;2.87;;
11931;SDS011;6025;51.368;6.788;2023-02-01T03:29:03;11.60;;;3.10;;
11931;SDS011;6025;51.368;6.788;2023-02-01T03:33:57;9.97;;;2.93;;
11931;SDS011;6025;51.368;6.788;2023-02-01T03:38:50;7.63;;;2.63;;
11931;SDS011;6025;51.368;6.788;2023-02-01T03:43:50;13.93;;;2.90;;
11931;SDS011;6025;51.368;6.788;2023-02-01T03:48:44;11.53;;;3.03;;
11931;SDS011;6025;51.368;6.788;2023-02-01T03:53:36;10.90;;;3.03;;
11931;SDS011;6025;51.368;6.788;2023-02-01T03:58:28;9.80;;;3.10;;
11931;SDS011;6025;51.368;6.788;2023-02-01T04:03:21;14.30;;;3.00;;
11931;SDS011;6025;51.368;6.788;2023-02-01T04:08:13;12.07;;;3.27;;
11931;SDS011;6025;51.368;6.788;2023-02-01T04:13:04;10.63;;;2.73;;
11931;SDS011;6025;51.368;6.788;2023-02-01T04:17:56;11.67;;;2.80;;
11931;SDS011;6025;51.368;6.788;2023-02-01T04:22:49;12.87;;;3.37;;
11931;SDS011;6025;51.368;6.788;2023-02-01T04:27:41;15.03;;;2.83;;
11931;SDS011;6025;51.368;6.788;2023-02-01T04:32:32;13.93;;;3.23;;
11931;SDS011;6025;51.368;6.788;2023-02-01T04:37:24;10.60;;;2.83;;
11931;SDS011;6025;51.368;6.788;2023-02-01T04:42:17;8.53;;;2.77;;
11931;SDS011;6025;51.368;6.788;2023-02-01T04:47:09;10.30;;;2.60;;
11931;SDS011;6025;51.368;6.788;2023-02-01T04:52:00;14.23;;;3.63;;
11931;SDS011;6025;51.368;6.788;2023-02-01T04:56:52;11.77;;;2.43;;
11931;SDS011;6025;51.368;6.788;2023-02-01T05:01:45;11.90;;;3.10;;
11931;SDS011;6025;51.368;6.788;2023-02-01T05:06:37;11.33;;;3.10;;
11931;SDS011;6025;51.368;6.788;2023-02-01T05:11:28;12.40;;;2.80;;
11931;SDS011;6025;51.368;6.788;2023-02-01T05:16:38;13.17;;;3.13;;
11931;SDS011;6025;51.368;6.788;2023-02-01T05:21:31;12.10;;;3.00;;
11931;SDS011;6025;51.368;6.788;2023-02-01T05:26:23;5.70;;;1.77;;
11931;SDS011;6025;51.368;6.788;2023-02-01T05:31:15;14.83;;;2.90;;
11931;SDS011;6025;51.368;6.788;2023-02-01T05:36:07;12.30;;;3.00;;
11931;SDS011;6025;51.368;6.788;2023-02-01T05:41:00;14.67;;;2.97;;
11931;SDS011;6025;51.368;6.788;2023-02-01T05:45:52;11.00;;;3.23;;
11931;SDS011;6025;51.368;6.788;2023-02-01T05:50:46;13.67;;;3.43;;
11931;SDS011;6025;51.368;6.788;2023-02-01T05:55:38;9.67;;;3.07;;
11931;SDS011;6025;51.368;6.788;2023-02-01T06:00:32;10.17;;;2.80;;
11931;SDS011;6025;51.368;6.788;2023-02-01T06:05:23;19.40;;;3.27;;
11931;SDS011;6025;51.368;6.788;2023-02-01T06:10:15;12.07;;;3.17;;
11931;SDS011;6025;51.368;6.788;2023-02-01T06:15:08;7.90;;;2.80;;
11931;SDS011;6025;51.368;6.788;2023-02-01T06:20:01;8.63;;;2.43;;
11931;SDS011;6025;51.368;6.788;2023-02-01T06:24:53;11.43;;;2.77;;
11931;SDS011;6025;51.368;6.788;2023-02-01T06:29:45;10.33;;;2.70;;
11931;SDS011;6025;51.368;6.788;2023-02-01T06:34:37;12.70;;;2.67;;
11931;SDS011;6025;51.368;6.788;2023-02-01T06:39:31;12.27;;;3.00;;
11931;SDS011;6025;51.368;6.788;2023-02-01T06:44:22;11.33;;;3.20;;
11931;SDS011;6025;51.368;6.788;2023-02-01T06:49:14;15.03;;;3.00;;
11931;SDS011;6025;51.368;6.788;2023-02-01T06:54:06;14.33;;;3.03;;
11931;SDS011;6025;51.368;6.788;2023-02-01T06:58:59;12.27;;;3.03;;
11931;SDS011;6025;51.368;6.788;2023-02-01T07:03:51;10.33;;;2.90;;
11931;SDS011;6025;51.368;6.788;2023-02-01T07:08:43;15.03;;;2.97;;
11931;SDS011;6025;51.368;6.788;2023-02-01T07:13:35;11.90;;;2.97;;
11931;SDS011;6025;51.368;6.788;2023-02-01T07:18:29;17.50;;;3.60;;
11931;SDS011;6025;51.368;6.788;2023-02-01T07:23:21;11.77;;;2.63;;
11931;SDS011;6025;51.368;6.788;2023-02-01T07:28:14;13.67;;;3.13;;
11931;SDS011;6025;51.368;6.788;2023-02-01T07:33:07;11.17;;;2.70;;
11931;SDS011;6025;51.368;6.788;2023-02-01T07:38:00;12.90;;;3.00;;
11931;SDS011;6025;51.368;6.788;2023-02-01T07:42:52;12.97;;;2.57;;
11931;SDS011;6025;51.368;6.788;2023-02-01T07:47:43;9.60;;;2.40;;
11931;SDS011;6025;51.368;6.788;2023-02-01T07:52:35;11.87;;;3.00;;
11931;SDS011;6025;51.368;6.788;2023-02-01T07:57:29;14.63;;;3.10;;
11931;SDS011;6025;51.368;6.788;2023-02-01T08:02:20;9.37;;;2.70;;
11931;SDS011;6025;51.368;6.788;2023-02-01T08:07:15;9.43;;;2.97;;
11931;SDS011;6025;51.368;6.788;2023-02-01T08:12:06;15.63;;;3.40;;
11931;SDS011;6025;51.368;6.788;2023-02-01T08:17:00;13.17;;;3.30;;
11931;SDS011;6025;51.368;6.788;2023-02-01T08:21:52;14.00;;;3.50;;
11931;SDS011;6025;51.368;6.788;2023-02-01T08:26:43;16.80;;;3.60;;
11931;SDS011;6025;51.368;6.788;2023-02-01T08:31:35;12.10;;;2.77;;
11931;SDS011;6025;51.368;6.788;2023-02-01T08:36:34;12.20;;;3.00;;
11931;SDS011;6025;51.368;6.788;2023-02-01T08:41:28;15.23;;;3.40;;
11931;SDS011;6025;51.368;6.788;2023-02-01T08:46:23;14.60;;;3.03;;
11931;SDS011;6025;51.368;6.788;2023-02-01T08:51:16;11.23;;;2.77;;
11931;SDS011;6025;51.368;6.788;2023-02-01T08:56:11;16.43;;;3.30;;
11931;SDS011;6025;51.368;6.788;2023-02-01T09:01:08;15.33;;;3.27;;
11931;SDS011;6025;51.368;6.788;2023-02-01T09:06:01;15.73;;;3.13;;
11931;SDS011;6025;51.368;6.788;2023-02-01T09:10:57;13.10;;;3.17;;
11931;SDS011;6025;51.368;6.788;2023-02-01T09:15:51;12.10;;;3.20;;
11931;SDS011;6025;51.368;6.788;2023-02-01T09:20:43;12.50;;;3.00;;
11931;SDS011;6025;51.368;6.788;2023-02-01T09:25:36;14.70;;;3.33;;
11931;SDS011;6025;51.368;6.788;2023-02-01T09:30:28;12.87;;;3.40;;
11931;SDS011;6025;51.368;6.788;2023-02-01T09:35:24;12.83;;;3.23;;
11931;SDS011;6025;51.368;6.788;2023-02-01T09:40:16;10.80;;;2.63;;
11931;SDS011;6025;51.368;6.788;2023-02-01T09:45:11;11.27;;;3.43;;
11931;SDS011;6025;51.368;6.788;2023-02-01T09:50:09;12.70;;;3.13;;
11931;SDS011;6025;51.368;6.788;2023-02-01T09:55:10;14.07;;;3.30;;
11931;SDS011;6025;51.368;6.788;2023-02-01T10:00:05;8.63;;;2.87;;
11931;SDS011;6025;51.368;6.788;2023-02-01T10:05:01;13.53;;;3.27;;
11931;SDS011;6025;51.368;6.788;2023-02-01T10:09:58;10.57;;;2.83;;
11931;SDS011;6025;51.368;6.788;2023-02-01T10:14:55;14.57;;;3.40;;
11931;SDS011;6025;51.368;6.788;2023-02-01T10:19:57;12.33;;;3.90;;
11931;SDS011;6025;51.368;6.788;2023-02-01T10:24:57;11.30;;;3.03;;
11931;SDS011;6025;51.368;6.788;2023-02-01T10:29:51;10.27;;;3.20;;
11931;SDS011;6025;51.368;6.788;2023-02-01T10:34:48;10.33;;;2.70;;
11931;SDS011;6025;51.368;6.788;2023-02-01T10:39:42;12.13;;;2.90;;
11931;SDS011;6025;51.368;6.788;2023-02-01T10:44:34;11.53;;;3.40;;
11931;SDS011;6025;51.368;6.788;2023-02-01T10:49:34;11.63;;;2.83;;
11931;SDS011;6025;51.368;6.788;2023-02-01T10:54:33;10.27;;;2.97;;
11931;SDS011;6025;51.368;6.788;2023-02-01T10:59:25;12.13;;;3.33;;
11931;SDS011;6025;51.368;6.788;2023-02-01T11:04:19;9.87;;;2.47;;
11931;SDS011;6025;51.368;6.788;2023-02-01T11:09:16;15.17;;;3.40;;
11931;SDS011;6025;51.368;6.788;2023-02-01T11:14:13;12.73;;;3.10;;
11931;SDS011;6025;51.368;6.788;2023-02-01T11:19:06;11.83;;;3.37;;
11931;SDS011;6025;51.368;6.788;2023-02-01T11:24:00;10.10;;;2.90;;
11931;SDS011;6025;51.368;6.788;2023-02-01T11:28:56;11.67;;;2.80;;
11931;SDS011;6025;51.368;6.788;2023-02-01T11:33:53;12.57;;;2.93;;
11931;SDS011;6025;51.368;6.788;2023-02-01T11:38:50;14.57;;;3.37;;
11931;SDS011;6025;51.368;6.788;2023-02-01T11:43:51;10.90;;;2.80;;
11931;SDS011;6025;51.368;6.788;2023-02-01T11:48:46;11.80;;;2.60;;
11931;SDS011;6025;51.368;6.788;2023-02-01T11:53:41;13.70;;;3.70;;
11931;SDS011;6025;51.368;6.788;2023-02-01T11:58:57;10.87;;;3.33;;
11931;SDS011;6025;51.368;6.788;2023-02-01T12:04:22;16.23;;;3.17;;
11931;SDS011;6025;51.368;6.788;2023-02-01T12:09:44;12.97;;;3.03;;
11931;SDS011;6025;51.368;6.788;2023-02-01T12:14:56;16.80;;;3.23;;
11931;SDS011;6025;51.368;6.788;2023-02-01T12:20:02;14.93;;;2.87;;
11931;SDS011;6025;51.368;6.788;2023-02-01T12:30:31;12.80;;;3.30;;
11931;SDS011;6025;51.368;6.788;2023-02-01T12:35:52;14.20;;;2.90;;
11931;SDS011;6025;51.368;6.788;2023-02-01T12:40:54;9.53;;;3.10;;
11931;SDS011;6025;51.368;6.788;2023-02-01T12:45:56;9.73;;;2.67;;
11931;SDS011;6025;51.368;6.788;2023-02-01T12:50:52;9.43;;;2.83;;
11931;SDS011;6025;51.368;6.788;2023-02-01T12:55:46;12.97;;;2.97;;
11931;SDS011;6025;51.368;6.788;2023-02-01T13:00:41;12.47;;;2.63;;
11931;SDS011;6025;51.368;6.788;2023-02-01T13:05:38;9.73;;;2.83;;
11931;SDS011;6025;51.368;6.788;2023-02-01T13:10:38;7.93;;;2.30;;
11931;SDS011;6025;51.368;6.788;2023-02-01T13:15:35;8.70;;;2.10;;
11931;SDS011;6025;51.368;6.788;2023-02-01T13:20:29;9.47;;;2.80;;
11931;SDS011;6025;51.368;6.788;2023-02-01T13:25:26;11.30;;;2.70;;
11931;SDS011;6025;51.368;6.788;2023-02-01T13:30:23;10.87;;;2.50;;
11931;SDS011;6025;51.368;6.788;2023-02-01T13:35:21;8.63;;;2.80;;
11931;SDS011;6025;51.368;6.788;2023-02-01T13:40:37;12.17;;;2.73;;
11931;SDS011;6025;51.368;6.788;2023-02-01T13:45:33;8.67;;;2.23;;
11931;SDS011;6025;51.368;6.788;2023-02-01T13:50:27;9.70;;;2.40;;
11931;SDS011;6025;51.368;6.788;2023-02-01T13:55:31;8.30;;;2.40;;
11931;SDS011;6025;51.368;6.788;2023-02-01T14:00:25;9.40;;;2.73;;
11931;SDS011;6025;51.368;6.788;2023-02-01T14:10:51;11.60;;;3.00;;
11931;SDS011;6025;51.368;6.788;2023-02-01T14:15:53;10.17;;;2.47;;
11931;SDS011;6025;51.368;6.788;2023-02-01T14:21:12;10.53;;;2.70;;
11931;SDS011;6025;51.368;6.788;2023-02-01T14:26:13;8.77;;;2.67;;
11931;SDS011;6025;51.368;6.788;2023-02-01T14:31:14;12.70;;;3.47;;
11931;SDS011;6025;51.368;6.788;2023-02-01T14:36:09;10.87;;;3.47;;
11931;SDS011;6025;51.368;6.788;2023-02-01T14:41:16;18.20;;;4.30;;
11931;SDS011;6025;51.368;6.788;2023-02-01T14:46:15;14.63;;;3.80;;
11931;SDS011;6025;51.368;6.788;2023-02-01T14:51:07;12.80;;;3.50;;
11931;SDS011;6025;51.368;6.788;2023-02-01T14:56:00;16.73;;;3.53;;
11931;SDS011;6025;51.368;6.788;2023-02-01T15:01:01;11.75;;;3.15;;
11931;SDS011;6025;51.368;6.788;2023-02-01T15:05:57;14.53;;;3.80;;
11931;SDS011;6025;51.368;6.788;2023-02-01T15:10:51;12.10;;;3.30;;
11931;SDS011;6025;51.368;6.788;2023-02-01T15:15:43;13.70;;;3.63;;
11931;SDS011;6025;51.368;6.788;2023-02-01T15:20:37;14.20;;;3.90;;
11931;SDS011;6025;51.368;6.788;2023-02-01T15:25:30;13.50;;;3.80;;
11931;SDS011;6025;51.368;6.788;2023-02-01T15:30:25;13.63;;;4.53;;
11931;SDS011;6025;51.368;6.788;2023-02-01T15:35:39;15.00;;;4.13;;
11931;SDS011;6025;51.368;6.788;2023-02-01T15:40:33;11.80;;;3.90;;
11931;SDS011;6025;51.368;6.788;2023-02-01T15:45:26;16.40;;;3.47;;
11931;SDS011;6025;51.368;6.788;2023-02-01T15:50:18;16.50;;;3.10;;
11931;SDS011;6025;51.368;6.788;2023-02-01T15:55:18;12.57;;;2.53;;
11931;SDS011;6025;51.368;6.788;2023-02-01T16:00:18;14.33;;;3.00;;
11931;SDS011;6025;51.368;6.788;2023-02-01T16:10:23;10.03;;;2.50;;
11931;SDS011;6025;51.368;6.788;2023-02-01T16:15:17;10.43;;;2.80;;
11931;SDS011;6025;51.368;6.788;2023-02-01T16:20:09;12.93;;;2.97;;
11931;SDS011;6025;51.368;6.788;2023-02-01T16:25:02;9.67;;;2.73;;
11931;SDS011;6025;51.368;6.788;2023-02-01T16:29:56;10.47;;;2.57;;
11931;SDS011;6025;51.368;6.788;2023-02-01T16:34:48;8.60;;;2.40;;
11931;SDS011;6025;51.368;6.788;2023-02-01T16:39:40;8.47;;;2.13;;
11931;SDS011;6025;51.368;6.788;2023-02-01T16:44:32;10.03;;;2.80;;
11931;SDS011;6025;51.368;6.788;2023-02-01T16:49:25;13.87;;;3.10;;
11931;SDS011;6025;51.368;6.788;2023-02-01T16:54:17;12.33;;;3.27;;
11931;SDS011;6025;51.368;6.788;2023-02-01T16:59:08;16.43;;;3.30;;
11931;SDS011;6025;51.368;6.788;2023-02-01T17:04:00;11.33;;;3.07;;
11931;SDS011;6025;51.368;6.788;2023-02-01T17:08:54;10.77;;;2.67;;
11931;SDS011;6025;51.368;6.788;2023-02-01T17:13:47;10.23;;;3.23;;
11931;SDS011;6025;51.368;6.788;2023-02-01T17:18:39;13.13;;;3.00;;
11931;SDS011;6025;51.368;6.788;2023-02-01T17:23:31;14.37;;;3.53;;
11931;SDS011;6025;51.368;6.788;2023-02-01T17:28:24;11.00;;;3.20;;
11931;SDS011;6025;51.368;6.788;2023-02-01T17:33:18;14.30;;;3.57;;
11931;SDS011;6025;51.368;6.788;2023-02-01T17:38:12;13.37;;;3.40;;
11931;SDS011;6025;51.368;6.788;2023-02-01T17:43:04;12.77;;;3.67;;
11931;SDS011;6025;51.368;6.788;2023-02-01T17:47:57;13.20;;;4.27;;
11931;SDS011;6025;51.368;6.788;2023-02-01T17:52:49;14.67;;;4.00;;
11931;SDS011;6025;51.368;6.788;2023-02-01T17:57:41;7.97;;;2.63;;
11931;SDS011;6025;51.368;6.788;2023-02-01T18:02:32;8.30;;;2.23;;
11931;SDS011;6025;51.368;6.788;2023-02-01T18:07:26;10.30;;;2.30;;
11931;SDS011;6025;51.368;6.788;2023-02-01T18:12:18;11.83;;;3.00;;
11931;SDS011;6025;51.368;6.788;2023-02-01T18:17:11;10.13;;;2.43;;
11931;SDS011;6025;51.368;6.788;2023-02-01T18:22:04;8.93;;;2.30;;
11931;SDS011;6025;51.368;6.788;2023-02-01T18:26:57;11.07;;;2.10;;
11931;SDS011;6025;51.368;6.788;2023-02-01T18:31:49;5.97;;;2.20;;
11931;SDS011;6025;51.368;6.788;2023-02-01T18:36:41;9.40;;;2.20;;
11931;SDS011;6025;51.368;6.788;2023-02-01T18:41:33;10.87;;;3.20;;
11931;SDS011;6025;51.368;6.788;2023-02-01T18:46:26;8.87;;;2.53;;
11931;SDS011;6025;51.368;6.788;2023-02-01T18:51:18;12.37;;;2.83;;
11931;SDS011;6025;51.368;6.788;2023-02-01T19:02:00;14.70;;;2.87;;
11931;SDS011;6025;51.368;6.788;2023-02-01T19:06:53;13.77;;;2.57;;
11931;SDS011;6025;51.368;6.788;2023-02-01T19:11:45;11.20;;;2.50;;
11931;SDS011;6025;51.368;6.788;2023-02-01T19:16:39;10.10;;;2.70;;
11931;SDS011;6025;51.368;6.788;2023-02-01T19:21:32;10.03;;;2.60;;
11931;SDS011;6025;51.368;6.788;2023-02-01T19:26:24;10.80;;;2.90;;
11931;SDS011;6025;51.368;6.788;2023-02-01T19:31:16;13.53;;;2.40;;
11931;SDS011;6025;51.368;6.788;2023-02-01T19:36:07;11.52;;;3.10;;
11931;SDS011;6025;51.368;6.788;2023-02-01T19:41:01;8.97;;;3.27;;
11931;SDS011;6025;51.368;6.788;2023-02-01T19:45:53;9.77;;;2.50;;
11931;SDS011;6025;51.368;6.788;2023-02-01T19:50:44;10.97;;;2.77;;
11931;SDS011;6025;51.368;6.788;2023-02-01T19:55:36;8.27;;;2.67;;
11931;SDS011;6025;51.368;6.788;2023-02-01T20:00:29;13.10;;;2.93;;
11931;SDS011;6025;51.368;6.788;2023-02-01T20:05:21;10.07;;;2.30;;
11931;SDS011;6025;51.368;6.788;2023-02-01T20:10:14;11.90;;;2.53;;
11931;SDS011;6025;51.368;6.788;2023-02-01T20:15:06;14.67;;;2.83;;
11931;SDS011;6025;51.368;6.788;2023-02-01T20:20:01;16.33;;;2.73;;
11931;SDS011;6025;51.368;6.788;2023-02-01T20:24:53;16.30;;;4.43;;
11931;SDS011;6025;51.368;6.788;2023-02-01T20:29:47;9.20;;;2.87;;
11931;SDS011;6025;51.368;6.788;2023-02-01T20:34:39;4.17;;;1.50;;
11931;SDS011;6025;51.368;6.788;2023-02-01T20:39:32;6.63;;;1.77;;
11931;SDS011;6025;51.368;6.788;2023-02-01T20:44:24;4.93;;;2.20;;
11931;SDS011;6025;51.368;6.788;2023-02-01T20:49:18;15.50;;;4.43;;
11931;SDS011;6025;51.368;6.788;2023-02-01T20:54:10;16.73;;;3.43;;
11931;SDS011;6025;51.368;6.788;2023-02-01T20:59:04;11.37;;;4.17;;
11931;SDS011;6025;51.368;6.788;2023-02-01T21:03:59;13.07;;;3.90;;
11931;SDS011;6025;51.368;6.788;2023-02-01T21:08:52;15.33;;;4.50;;
11931;SDS011;6025;51.368;6.788;2023-02-01T21:13:44;13.27;;;4.23;;
11931;SDS011;6025;51.368;6.788;2023-02-01T21:18:42;11.80;;;3.67;;
11931;SDS011;6025;51.368;6.788;2023-02-01T21:23:35;16.93;;;4.40;;
11931;SDS011;6025;51.368;6.788;2023-02-01T21:28:33;14.82;;;5.03;;
11931;SDS011;6025;51.368;6.788;2023-02-01T21:33:25;12.80;;;4.03;;
11931;SDS011;6025;51.368;6.788;2023-02-01T21:38:19;15.48;;;4.35;;
11931;SDS011;6025;51.368;6.788;2023-02-01T21:43:13;10.70;;;3.60;;
11931;SDS011;6025;51.368;6.788;2023-02-01T21:48:05;13.13;;;4.20;;
11931;SDS011;6025;51.368;6.788;2023-02-01T21:52:57;14.02;;;4.25;;
11931;SDS011;6025;51.368;6.788;2023-02-01T21:57:50;14.35;;;4.93;;
11931;SDS011;6025;51.368;6.788;2023-02-01T22:02:41;13.27;;;3.80;;
11931;SDS011;6025;51.368;6.788;2023-02-01T22:07:35;11.43;;;3.57;;
11931;SDS011;6025;51.368;6.788;2023-02-01T22:12:27;11.48;;;3.63;;
11931;SDS011;6025;51.368;6.788;2023-02-01T22:17:20;9.87;;;2.97;;
11931;SDS011;6025;51.368;6.788;2023-02-01T22:22:12;8.63;;;2.13;;
11931;SDS011;6025;51.368;6.788;2023-02-01T22:27:04;16.47;;;5.30;;
11931;SDS011;6025;51.368;6.788;2023-02-01T22:31:55;21.07;;;7.73;;
11931;SDS011;6025;51.368;6.788;2023-02-01T22:36:48;21.85;;;6.90;;
11931;SDS011;6025;51.368;6.788;2023-02-01T22:41:40;26.67;;;9.77;;
11931;SDS011;6025;51.368;6.788;2023-02-01T22:46:32;19.80;;;7.03;;
11931;SDS011;6025;51.368;6.788;2023-02-01T22:51:24;20.30;;;7.80;;
11931;SDS011;6025;51.368;6.788;2023-02-01T22:56:19;19.50;;;6.73;;
11931;SDS011;6025;51.368;6.788;2023-02-01T23:01:12;16.37;;;6.13;;
11931;SDS011;6025;51.368;6.788;2023-02-01T23:06:05;14.70;;;4.70;;
11931;SDS011;6025;51.368;6.788;2023-02-01T23:10:59;16.07;;;4.60;;
11931;SDS011;6025;51.368;6.788;2023-02-01T23:15:54;12.47;;;3.60;;
11931;SDS011;6025;51.368;6.788;2023-02-01T23:20:49;14.70;;;3.83;;
11931;SDS011;6025;51.368;6.788;2023-02-01T23:25:41;15.80;;;3.00;;
11931;SDS011;6025;51.368;6.788;2023-02-01T23:30:32;7.80;;;2.50;;
11931;SDS011;6025;51.368;6.788;2023-02-01T23:35:26;9.87;;;2.70;;
11931;SDS011;6025;51.368;6.788;2023-02-01T23:40:17;11.80;;;3.78;;
11931;SDS011;6025;51.368;6.788;2023-02-01T23:45:09;9.53;;;3.27;;
11931;SDS011;6025;51.368;6.788;2023-02-01T23:50:01;12.60;;;3.83;;
11931;SDS011;6025;51.368;6.788;2023-02-01T23:54:54;14.87;;;4.20;;
11931;SDS011;6025;51.368;6.788;2023-02-01T23:59:46;20.88;;;7.00;;
